Time;durP1;ratioP1;P1;durP2;ratioP2;P2;SDS_P1;SDS_P2;PMS_P1;PMS_P2;Temp;Humidity;BMP_temperature;BMP_pressure;BME280_temperature;BME280_humidity;BME280_pressure;Samples;Min_cycle;Max_cycle;Signal;HPM_P1;HPM_P2
2023/12/19 00:01:21;;;;;;;140.73;64.82;;;;;;;2.68;64.75;101213.44;4452448;32;20143;-79
2023/12/19 00:03:50;;;;;;;133.52;60.92;;;;;;;2.59;64.93;101201.38;4452396;32;20179;-79
2023/12/19 00:06:21;;;;;;;120.05;58.63;;;;;;;2.53;65.28;101204.06;4452435;32;20164;-79
2023/12/19 00:08:51;;;;;;;202.87;67.00;;;;;;;2.60;65.35;101200.47;4452319;32;20143;-79
2023/12/19 00:11:19;;;;;;;187.80;68.65;;;;;;;2.71;65.11;101198.56;4452766;32;20172;-79
2023/12/19 00:13:48;;;;;;;207.93;74.65;;;;;;;2.75;65.23;101193.28;4452475;32;20163;-79
2023/12/19 00:16:18;;;;;;;133.07;69.10;;;;;;;2.72;65.14;101197.66;4452546;32;20554;-79
2023/12/19 00:18:47;;;;;;;152.87;65.55;;;;;;;2.64;65.72;101196.91;4452474;32;20183;-79
2023/12/19 00:21:24;;;;;;;158.63;54.53;;;;;;;2.81;64.92;101206.25;4452165;32;20160;-79
2023/12/19 00:23:53;;;;;;;163.62;52.22;;;;;;;2.82;65.00;101197.53;4452298;32;20510;-79
2023/12/19 00:26:22;;;;;;;100.97;51.20;;;;;;;2.64;65.63;101198.69;4452646;32;20159;-79
2023/12/19 00:28:51;;;;;;;165.90;53.35;;;;;;;2.67;65.68;101199.50;4452548;32;20155;-80
2023/12/19 00:31:21;;;;;;;138.80;45.97;;;;;;;2.38;66.53;101201.72;4452541;32;20179;-80
2023/12/19 00:33:54;;;;;;;116.60;41.78;;;;;;;2.45;66.41;101200.72;4452584;32;20594;-80
2023/12/19 00:36:25;;;;;;;100.60;41.00;;;;;;;2.43;66.34;101210.34;4452631;32;20168;-79
2023/12/19 00:38:55;;;;;;;74.35;38.25;;;;;;;2.38;66.55;101205.19;4452812;32;20164;-79
2023/12/19 00:41:24;;;;;;;80.00;39.03;;;;;;;2.34;66.75;101202.63;4451442;32;20140;-80
2023/12/19 00:43:53;;;;;;;95.90;38.42;;;;;;;2.36;66.73;101204.31;4437513;32;20454;-79
2023/12/19 00:46:25;;;;;;;57.03;33.90;;;;;;;2.44;66.42;101209.44;4437409;32;20164;-80
2023/12/19 00:48:55;;;;;;;82.03;36.00;;;;;;;2.69;65.31;101209.94;4437556;32;20535;-80
2023/12/19 00:51:25;;;;;;;64.68;35.75;;;;;;;2.35;66.10;101212.22;4423611;32;20172;-80
2023/12/19 00:53:55;;;;;;;77.00;36.45;;;;;;;2.26;66.13;101220.16;4437673;32;20164;-80
2023/12/19 00:56:24;;;;;;;72.60;39.72;;;;;;;2.42;65.63;101219.09;4437849;32;20179;-80
2023/12/19 00:58:53;;;;;;;215.07;57.58;;;;;;;2.23;66.07;101221.09;4436836;32;20160;-80
2023/12/19 01:01:25;;;;;;;79.03;46.25;;;;;;;1.57;67.58;101213.22;4423337;32;20461;-80
2023/12/19 01:03:54;;;;;;;95.05;46.72;;;;;;;1.72;67.70;101216.50;4437593;32;20152;-80
2023/12/19 01:06:25;;;;;;;154.35;58.35;;;;;;;1.70;67.75;101204.34;4437805;32;20172;-80
2023/12/19 01:08:54;;;;;;;145.20;57.35;;;;;;;1.90;67.27;101207.59;4438041;32;20151;-80
2023/12/19 01:11:25;;;;;;;150.55;62.00;;;;;;;1.82;67.57;101203.31;4423974;32;20176;-79
2023/12/19 01:13:53;;;;;;;105.85;57.40;;;;;;;2.01;67.04;101204.81;4438004;32;20152;-79
2023/12/19 01:16:28;;;;;;;142.65;62.15;;;;;;;2.16;66.57;101206.37;4437702;32;20156;-79
2023/12/19 01:19:00;;;;;;;176.30;67.72;;;;;;;2.20;66.42;101208.06;4423905;32;20176;-80
2023/12/19 01:21:31;;;;;;;138.15;59.05;;;;;;;2.15;66.73;101213.34;4437399;32;20172;-79
2023/12/19 01:24:01;;;;;;;127.10;64.20;;;;;;;2.13;66.82;101204.66;4437527;32;20433;-79
2023/12/19 01:26:32;;;;;;;100.15;58.47;;;;;;;2.25;66.63;101206.22;4438003;32;20176;-79
2023/12/19 01:29:02;;;;;;;95.57;57.55;;;;;;;2.06;67.23;101210.88;4437965;32;20168;-79
2023/12/19 01:31:32;;;;;;;96.95;59.05;;;;;;;2.29;66.59;101212.28;4423667;32;20163;-79
2023/12/19 01:34:01;;;;;;;116.37;63.15;;;;;;;2.40;65.96;101208.62;4437636;32;20465;-79
2023/12/19 01:36:33;;;;;;;109.10;58.42;;;;;;;2.20;66.78;101206.31;4437649;32;20524;-80
2023/12/19 01:39:02;;;;;;;100.78;57.05;;;;;;;2.33;66.55;101204.38;4437581;32;20167;-80
2023/12/19 01:41:31;;;;;;;101.95;58.03;;;;;;;2.46;66.23;101210.31;4437863;32;20173;-80
2023/12/19 01:44:04;;;;;;;92.05;59.17;;;;;;;2.72;65.37;101197.66;4437563;32;20461;-79
2023/12/19 01:46:36;;;;;;;108.65;61.75;;;;;;;2.87;64.80;101191.31;4437694;32;20211;-80
2023/12/19 01:49:05;;;;;;;119.30;60.45;;;;;;;2.40;66.50;101184.22;4437805;32;20160;-80
2023/12/19 01:51:36;;;;;;;127.40;66.35;;;;;;;2.39;66.63;101179.87;4438040;32;20155;-80
2023/12/19 01:54:08;;;;;;;102.70;59.97;;;;;;;2.55;66.01;101170.06;4437624;32;21994;-80
2023/12/19 01:56:41;;;;;;;106.12;59.17;;;;;;;2.31;66.76;101159.06;4438049;32;20357;-80
2023/12/19 01:59:11;;;;;;;90.22;58.28;;;;;;;2.22;67.39;101154.84;4437590;32;20188;-80
2023/12/19 02:01:40;;;;;;;89.07;57.15;;;;;;;2.24;67.26;101152.22;4437533;32;20196;-79
2023/12/19 02:04:11;;;;;;;92.15;53.40;;;;;;;2.31;67.31;101150.38;4437652;32;20153;-80
2023/12/19 02:06:42;;;;;;;80.95;51.88;;;;;;;2.32;67.49;101159.94;4437658;32;20163;-80
2023/12/19 02:09:11;;;;;;;98.95;51.67;;;;;;;2.38;67.14;101150.25;4437446;32;20200;-80
2023/12/19 02:11:41;;;;;;;92.60;55.50;;;;;;;2.07;67.65;101138.53;4423917;32;20176;-80
2023/12/19 02:14:10;;;;;;;82.45;55.30;;;;;;;1.71;68.95;101127.69;4437345;32;20176;-79
2023/12/19 02:16:39;;;;;;;82.18;50.47;;;;;;;2.05;67.75;101129.81;4437661;32;20164;-80
2023/12/19 02:19:12;;;;;;;82.12;53.20;;;;;;;1.80;68.92;101131.94;4437698;32;20167;-80
2023/12/19 02:21:43;;;;;;;79.50;50.42;;;;;;;1.95;68.75;101143.03;4423003;32;20172;-80
2023/12/19 02:24:13;;;;;;;76.68;52.55;;;;;;;2.10;68.49;101135.84;4437687;32;20161;-80
2023/12/19 02:26:42;;;;;;;78.93;48.67;;;;;;;2.17;68.15;101140.97;4437491;32;20137;-80
2023/12/19 02:29:12;;;;;;;75.90;53.03;;;;;;;2.28;67.90;101130.34;4437335;32;20179;-80
2023/12/19 02:31:44;;;;;;;83.85;52.50;;;;;;;2.34;67.80;101134.63;4437829;32;20171;-80
2023/12/19 02:34:15;;;;;;;77.93;50.12;;;;;;;2.44;67.52;101133.59;4437637;32;20160;-80
2023/12/19 02:36:44;;;;;;;72.45;47.50;;;;;;;2.55;67.22;101129.03;4437792;32;20164;-80
2023/12/19 02:39:15;;;;;;;79.57;51.25;;;;;;;2.53;67.21;101132.56;4437490;32;20528;-80
2023/12/19 02:41:45;;;;;;;81.63;48.55;;;;;;;2.40;67.40;101135.37;4437638;32;20175;-80
2023/12/19 02:44:15;;;;;;;89.72;49.78;;;;;;;2.44;67.35;101126.59;4437137;32;20755;-80
2023/12/19 02:46:47;;;;;;;77.25;47.22;;;;;;;2.49;67.10;101129.13;4437747;32;20168;-80
2023/12/19 02:49:17;;;;;;;75.78;49.63;;;;;;;2.59;66.65;101132.47;4437531;32;20167;-80
2023/12/19 02:51:46;;;;;;;125.78;55.65;;;;;;;2.68;66.59;101134.94;4437486;32;20152;-80
2023/12/19 02:54:18;;;;;;;84.25;49.35;;;;;;;2.61;66.39;101133.31;4437627;32;20172;-80
2023/12/19 02:56:48;;;;;;;257.80;61.40;;;;;;;2.41;66.72;101131.00;4437728;32;20523;-80
2023/12/19 02:59:17;;;;;;;149.87;59.50;;;;;;;1.97;67.28;101133.41;4437766;32;20428;-80
2023/12/19 03:01:50;;;;;;;90.28;52.05;;;;;;;2.17;67.14;101135.72;4437572;32;20160;-80
2023/12/19 03:04:19;;;;;;;83.45;48.90;;;;;;;1.86;68.80;101135.34;4437067;32;20403;-80
2023/12/19 03:06:49;;;;;;;99.25;46.88;;;;;;;2.05;68.24;101135.06;4437443;32;20157;-80
2023/12/19 03:09:19;;;;;;;154.73;53.80;;;;;;;1.97;68.53;101129.94;4437357;32;20152;-80
2023/12/19 03:12:03;;;;;;;179.23;52.65;;;;;;;1.80;68.72;101126.72;4436966;32;20168;-80
2023/12/19 03:14:32;;;;;;;178.38;53.13;;;;;;;1.52;70.41;101126.19;4437625;32;20179;-80
2023/12/19 03:17:03;;;;;;;130.73;49.83;;;;;;;1.83;69.21;101114.47;4437309;32;20513;-80
2023/12/19 03:19:33;;;;;;;85.38;45.75;;;;;;;1.80;69.54;101111.03;4437306;32;20147;-80
2023/12/19 03:22:03;;;;;;;197.98;58.05;;;;;;;1.71;70.04;101102.44;4422041;32;20459;-79
2023/12/19 03:24:33;;;;;;;178.10;52.67;;;;;;;1.90;69.34;101104.75;4436388;32;20508;-79
2023/12/19 03:27:03;;;;;;;170.20;51.10;;;;;;;1.49;70.72;101100.97;4436617;32;20148;-80
2023/12/19 03:29:34;;;;;;;176.68;51.55;;;;;;;1.60;70.64;101101.72;4437259;32;20171;-80
2023/12/19 03:32:03;;;;;;;130.68;46.70;;;;;;;1.46;70.87;101104.47;4436771;32;20176;-80
2023/12/19 03:34:39;;;;;;;101.80;45.05;;;;;;;1.48;71.37;101109.69;4436486;32;20164;-80
2023/12/19 03:37:08;;;;;;;188.45;53.05;;;;;;;1.75;70.60;101113.72;4436714;32;20164;-80
2023/12/19 03:39:39;;;;;;;193.25;48.83;;;;;;;1.47;71.05;101114.06;4436635;32;20140;-80
2023/12/19 03:42:08;;;;;;;154.63;48.90;;;;;;;1.73;70.73;101112.84;4438913;32;20786;-80
2023/12/19 03:44:48;;;;;;;118.20;44.10;;;;;;;1.97;70.02;101115.13;4451732;32;20544;-80
2023/12/19 03:47:18;;;;;;;261.27;56.90;;;;;;;1.78;70.56;101113.62;4438530;32;20199;-80
2023/12/19 03:49:48;;;;;;;198.87;56.63;;;;;;;1.62;71.34;101102.53;4452157;32;20558;-80
2023/12/19 03:52:18;;;;;;;266.40;56.13;;;;;;;1.49;71.77;101111.44;4451763;32;20151;-80
2023/12/19 03:54:48;;;;;;;105.82;42.42;;;;;;;1.11;73.03;101104.94;4451755;32;20168;-80
2023/12/19 03:57:18;;;;;;;134.80;47.17;;;;;;;1.24;73.33;101105.66;4452049;32;20180;-80
2023/12/19 03:59:48;;;;;;;122.65;45.38;;;;;;;1.45;72.52;101101.91;4455422;32;20152;-80
2023/12/19 04:02:20;;;;;;;93.60;40.35;;;;;;;1.59;71.97;101097.38;4455099;32;20171;-80
2023/12/19 04:04:50;;;;;;;86.50;41.42;;;;;;;1.97;70.70;101106.41;4455411;32;20179;-80
2023/12/19 04:07:20;;;;;;;129.93;45.58;;;;;;;1.87;71.09;101112.69;4440255;32;20160;-80
2023/12/19 04:09:51;;;;;;;143.65;47.42;;;;;;;2.07;70.33;101109.78;4451742;32;20147;-80
2023/12/19 04:12:20;;;;;;;111.07;41.33;;;;;;;1.27;72.35;101105.63;4451715;32;20148;-80
2023/12/19 04:14:49;;;;;;;97.93;41.10;;;;;;;1.41;71.91;101108.91;4451566;32;20156;-80
2023/12/19 04:17:23;;;;;;;107.63;43.05;;;;;;;1.40;72.47;101114.16;4452026;32;20180;-80
2023/12/19 04:19:53;;;;;;;71.65;38.63;;;;;;;1.67;71.81;101110.34;4452210;32;20191;-80
2023/12/19 04:22:22;;;;;;;153.93;47.10;;;;;;;1.93;70.87;101112.56;4451583;32;20156;-80
2023/12/19 04:24:52;;;;;;;137.02;40.95;;;;;;;1.90;70.40;101123.97;4453000;32;20157;-80
2023/12/19 04:27:22;;;;;;;104.60;40.55;;;;;;;1.67;71.10;101119.03;4453163;32;20180;-80
2023/12/19 04:29:55;;;;;;;138.40;42.50;;;;;;;1.21;73.13;101116.13;4452076;32;20139;-80
2023/12/19 04:32:24;;;;;;;132.43;47.35;;;;;;;1.40;72.00;101120.25;4452331;32;20163;-80
2023/12/19 04:34:53;;;;;;;146.07;43.92;;;;;;;1.55;71.91;101129.66;4454567;32;20183;-80
2023/12/19 04:37:22;;;;;;;96.70;38.45;;;;;;;1.65;71.53;101119.94;4454251;32;20176;-80
2023/12/19 04:39:54;;;;;;;149.05;43.13;;;;;;;1.75;70.65;101118.06;4454034;32;20163;-80
2023/12/19 04:42:24;;;;;;;82.80;38.10;;;;;;;1.41;71.92;101115.88;4454701;32;20898;-80
2023/12/19 04:44:53;;;;;;;92.65;41.35;;;;;;;1.69;71.41;101104.19;4454562;32;20192;-80
2023/12/19 04:47:25;;;;;;;64.95;38.55;;;;;;;1.86;70.85;101106.59;4454621;32;20129;-80
2023/12/19 04:49:54;;;;;;;104.60;39.38;;;;;;;2.12;70.25;101121.87;4454493;32;20539;-80
2023/12/19 04:52:24;;;;;;;141.40;41.05;;;;;;;2.24;69.78;101110.38;4454069;32;20183;-80
2023/12/19 04:54:55;;;;;;;56.92;36.15;;;;;;;2.20;69.29;101125.22;4454512;32;20153;-80
2023/12/19 04:57:25;;;;;;;59.77;35.90;;;;;;;2.14;69.39;101138.41;4454122;32;20171;-80
2023/12/19 04:59:56;;;;;;;71.30;36.42;;;;;;;2.20;69.37;101142.69;4455943;32;20132;-80
2023/12/19 05:02:32;;;;;;;184.48;45.40;;;;;;;1.84;69.75;101154.53;4456107;32;20175;-80
2023/12/19 05:05:02;;;;;;;147.57;43.87;;;;;;;1.90;69.80;101143.97;4443428;32;20156;-80
2023/12/19 05:07:32;;;;;;;77.80;41.22;;;;;;;1.71;70.32;101140.75;4456278;32;20152;-80
2023/12/19 05:10:03;;;;;;;98.00;37.20;;;;;;;1.69;70.68;101143.38;4453942;32;20155;-80
2023/12/19 05:12:35;;;;;;;69.80;35.75;;;;;;;1.35;71.70;101137.72;4454351;32;20164;-80
2023/12/19 05:15:06;;;;;;;169.25;46.72;;;;;;;1.81;69.89;101133.66;4456706;32;20179;-80
2023/12/19 05:20:13;;;;;;;183.50;49.05;;;;;;;1.57;70.57;101125.25;4454589;32;20152;-80
2023/12/19 05:22:43;;;;;;;75.43;35.50;;;;;;;1.05;72.04;101120.63;4455263;32;20167;-80
2023/12/19 05:25:14;;;;;;;93.35;38.20;;;;;;;1.21;71.36;101124.81;4453606;32;20167;-80
2023/12/19 05:27:43;;;;;;;78.82;38.92;;;;;;;1.00;72.24;101129.41;4439009;32;20219;-80
2023/12/19 05:30:14;;;;;;;100.47;37.38;;;;;;;1.04;72.62;101126.75;4453228;32;20171;-80
2023/12/19 05:32:47;;;;;;;83.37;38.40;;;;;;;1.20;72.27;101107.44;4454171;32;20159;-80
2023/12/19 05:35:17;;;;;;;90.45;37.42;;;;;;;1.21;71.82;101122.19;4453325;32;20160;-80
2023/12/19 05:37:55;;;;;;;185.68;47.03;;;;;;;0.91;73.05;101126.03;4439186;32;20148;-80
2023/12/19 05:40:27;;;;;;;84.22;33.22;;;;;;;0.58;73.40;101116.75;4452645;32;20144;-80
2023/12/19 05:42:58;;;;;;;100.40;34.03;;;;;;;0.84;73.13;101110.44;4446836;32;20168;-80
2023/12/19 05:45:27;;;;;;;103.65;34.08;;;;;;;0.94;72.63;101104.22;4452445;32;20163;-80
2023/12/19 05:47:58;;;;;;;101.53;35.80;;;;;;;0.90;72.37;101097.31;4438441;32;20513;-80
2023/12/19 05:50:27;;;;;;;92.10;32.50;;;;;;;0.67;73.55;101101.03;4453462;32;20132;-79
2023/12/19 05:52:56;;;;;;;116.32;37.53;;;;;;;1.04;72.34;101092.81;4452851;32;20182;-79
2023/12/19 05:55:28;;;;;;;296.02;60.90;;;;;;;1.08;72.35;101088.44;4452860;32;20788;-80
2023/12/19 05:57:57;;;;;;;171.00;43.90;;;;;;;0.54;73.21;101099.41;4453755;32;20171;-80
2023/12/19 06:00:27;;;;;;;113.15;36.65;;;;;;;0.27;74.38;101084.84;4456011;32;20155;-80
2023/12/19 06:03:03;;;;;;;65.82;34.47;;;;;;;0.94;72.77;101084.22;4439929;32;20155;-80
2023/12/19 06:05:33;;;;;;;127.85;34.85;;;;;;;0.95;72.84;101095.50;4452885;32;20147;-80
2023/12/19 06:08:03;;;;;;;133.25;36.55;;;;;;;1.11;72.41;101089.28;4452697;32;20143;-80
2023/12/19 06:10:37;;;;;;;207.02;42.03;;;;;;;1.36;71.57;101082.00;4452749;32;20532;-80
2023/12/19 06:13:06;;;;;;;212.20;43.85;;;;;;;1.12;71.39;101083.16;4452427;32;20163;-79
2023/12/19 06:15:36;;;;;;;150.80;45.25;;;;;;;1.03;71.81;101082.38;4438621;32;20175;-80
2023/12/19 06:18:05;;;;;;;75.90;34.15;;;;;;;0.76;72.18;101073.12;4452450;32;20171;-80
2023/12/19 06:20:39;;;;;;;57.08;36.75;;;;;;;1.22;71.07;101079.53;4452670;32;20184;-80
2023/12/19 06:23:09;;;;;;;138.75;36.40;;;;;;;1.40;70.81;101078.47;4452111;32;20175;-80
2023/12/19 06:25:39;;;;;;;171.30;45.17;;;;;;;1.20;71.46;101086.53;4438043;32;20159;-79
2023/12/19 06:28:08;;;;;;;146.40;41.90;;;;;;;0.82;72.49;101067.81;4452427;32;20175;-79
2023/12/19 06:30:37;;;;;;;109.32;34.50;;;;;;;0.77;72.59;101069.62;4452313;32;20172;-79
2023/12/19 06:33:11;;;;;;;107.20;34.97;;;;;;;1.40;70.77;101068.00;4452543;32;20218;-80
2023/12/19 06:35:41;;;;;;;67.95;30.98;;;;;;;1.45;70.40;101063.59;4452885;32;20140;-80
2023/12/19 06:38:11;;;;;;;199.02;43.55;;;;;;;1.52;70.62;101080.03;4452351;32;20159;-79
2023/12/19 06:40:42;;;;;;;66.03;32.50;;;;;;;1.09;71.67;101091.00;4455626;32;20175;-79
2023/12/19 06:43:15;;;;;;;96.82;32.80;;;;;;;1.17;71.75;101085.72;4440600;32;20168;-79
2023/12/19 06:45:45;;;;;;;104.53;35.88;;;;;;;1.21;71.65;101093.47;4452377;32;20187;-79
2023/12/19 06:48:23;;;;;;;177.65;41.47;;;;;;;1.33;70.83;101084.63;4452363;32;20151;-80
2023/12/19 06:50:52;;;;;;;164.20;42.17;;;;;;;0.98;71.49;101087.66;4445687;32;20164;-79
2023/12/19 06:53:21;;;;;;;106.20;32.92;;;;;;;1.05;71.99;101088.47;4452670;32;20171;-79
2023/12/19 06:55:51;;;;;;;105.10;32.63;;;;;;;1.04;72.00;101086.75;4450956;32;20717;-79
2023/12/19 06:58:21;;;;;;;174.07;43.60;;;;;;;1.46;70.33;101080.97;4451673;32;20164;-79
2023/12/19 07:00:50;;;;;;;140.95;37.58;;;;;;;1.29;70.32;101097.75;4452007;32;20163;-79
2023/12/19 07:03:21;;;;;;;185.18;43.38;;;;;;;1.01;71.52;101103.28;4437054;32;20195;-79
2023/12/19 07:05:51;;;;;;;104.80;37.10;;;;;;;0.67;73.34;101101.03;4451303;32;20136;-79
2023/12/19 07:08:20;;;;;;;151.60;41.53;;;;;;;1.34;70.89;101095.94;4451927;32;20139;-79
2023/12/19 07:10:54;;;;;;;125.30;37.25;;;;;;;0.82;72.79;101089.56;4451492;32;20450;-79
2023/12/19 07:13:23;;;;;;;177.32;42.47;;;;;;;1.07;71.91;101084.06;4436892;32;20163;-79
2023/12/19 07:15:57;;;;;;;241.77;48.42;;;;;;;0.61;73.71;101093.25;4451332;32;20165;-79
2023/12/19 07:18:28;;;;;;;128.98;39.13;;;;;;;0.69;73.57;101091.44;4451693;32;20447;-79
2023/12/19 07:20:58;;;;;;;115.47;36.50;;;;;;;1.02;72.30;101084.13;4451186;32;20226;-79
2023/12/19 07:23:27;;;;;;;201.80;49.13;;;;;;;0.47;74.46;101082.94;4451308;32;20168;-79
2023/12/19 07:25:57;;;;;;;87.28;33.05;;;;;;;0.52;74.64;101077.69;4451307;32;20188;-79
2023/12/19 07:28:27;;;;;;;118.03;38.55;;;;;;;0.48;75.34;101086.44;4450676;32;20179;-79
2023/12/19 07:30:57;;;;;;;121.45;40.22;;;;;;;1.00;73.12;101088.53;4450658;32;20164;-79
2023/12/19 07:33:30;;;;;;;76.90;35.33;;;;;;;0.97;73.43;101098.97;4450820;32;20152;-79
2023/12/19 07:35:59;;;;;;;;;;;;;;;1.10;73.02;101103.19;4451613;32;20168;-79
2023/12/19 07:38:28;;;;;;;154.60;42.70;;;;;;;1.36;72.46;101117.69;4452147;32;20035;-79
2023/12/19 07:40:58;;;;;;;140.52;38.70;;;;;;;1.51;71.63;101114.03;4451460;32;20159;-79
2023/12/19 07:43:29;;;;;;;134.73;37.85;;;;;;;1.32;72.15;101101.19;4451147;32;20163;-79
2023/12/19 07:45:58;;;;;;;114.07;37.17;;;;;;;0.97;72.91;101093.75;4450914;32;20513;-79
2023/12/19 07:48:31;;;;;;;176.05;43.53;;;;;;;1.58;70.98;101095.63;4451290;32;20178;-79
2023/12/19 07:51:00;;;;;;;300.25;56.17;;;;;;;0.48;74.05;101099.47;4451500;32;20714;-79
2023/12/19 07:53:30;;;;;;;221.15;51.55;;;;;;;-0.06;76.72;101099.88;4451338;32;20184;-79
2023/12/19 07:56:04;;;;;;;311.55;54.33;;;;;;;0.38;75.72;101103.03;4451058;32;20155;-79
2023/12/19 07:58:33;;;;;;;145.90;40.50;;;;;;;0.56;74.91;101100.25;4450940;32;20156;-79
2023/12/19 08:01:05;;;;;;;375.60;62.25;;;;;;;1.18;73.33;101101.34;4450828;32;20461;-79
2023/12/19 08:03:38;;;;;;;100.05;36.65;;;;;;;0.85;73.72;101104.34;4450784;32;20163;-79
2023/12/19 08:06:08;;;;;;;118.22;40.05;;;;;;;0.99;73.72;101110.28;4436494;32;20156;-79
2023/12/19 08:08:37;;;;;;;99.18;32.50;;;;;;;1.52;72.20;101102.69;4452924;32;20183;-79
2023/12/19 08:11:08;;;;;;;62.97;31.50;;;;;;;1.27;76.46;101105.63;4438607;32;20187;-79
2023/12/19 08:13:38;;;;;;;145.02;52.45;;;;;;;3.38;87.29;101107.44;4452320;32;20164;-79
2023/12/19 08:16:07;;;;;;;81.57;38.40;;;;;;;3.90;81.71;101103.69;4452379;32;20188;-79
2023/12/19 08:18:39;;;;;;;97.97;40.58;;;;;;;4.20;77.25;101114.38;4452871;32;20454;-79
2023/12/19 08:21:09;;;;;;;132.70;40.15;;;;;;;4.54;72.06;101110.94;4453709;32;20164;-80
2023/12/19 08:23:39;;;;;;;130.60;35.55;;;;;;;3.99;67.48;101100.00;4452989;32;20180;-79
2023/12/19 08:26:10;;;;;;;177.80;48.78;;;;;;;3.91;65.77;101110.66;4452600;32;20179;-79
2023/12/19 08:28:40;;;;;;;188.73;42.97;;;;;;;3.60;64.64;101102.63;4452803;32;20159;-79
2023/12/19 08:31:09;;;;;;;112.32;43.35;;;;;;;3.40;64.69;101107.38;4453061;32;20156;-79
2023/12/19 08:33:43;;;;;;;73.60;34.65;;;;;;;2.49;67.72;101109.97;4452687;32;20159;-79
2023/12/19 08:36:13;;;;;;;121.28;38.42;;;;;;;3.08;66.07;101102.78;4452467;32;20152;-79
2023/12/19 08:39:06;;;;;;;116.20;40.75;;;;;;;2.68;66.70;101101.78;4452918;32;20171;-79
2023/12/19 08:41:40;;;;;;;122.07;41.47;;;;;;;2.30;68.69;101112.03;4453923;32;20136;-79
2023/12/19 08:44:09;;;;;;;103.38;37.40;;;;;;;2.23;69.53;101121.72;4452773;32;20449;-79
2023/12/19 08:46:38;;;;;;;138.85;44.33;;;;;;;3.17;75.97;101116.59;4454520;32;20156;-80
2023/12/19 08:49:07;;;;;;;270.63;51.40;;;;;;;3.15;72.71;101123.59;4455037;32;20175;-80
2023/12/19 08:51:37;;;;;;;81.05;36.42;;;;;;;3.19;67.81;101122.66;4455155;32;20188;-79
2023/12/19 08:54:07;;;;;;;154.48;41.83;;;;;;;3.71;66.54;101105.00;4452882;32;20219;-79
2023/12/19 08:56:36;;;;;;;222.88;51.58;;;;;;;3.70;63.64;101104.13;4452781;32;20176;-78
2023/12/19 08:59:09;;;;;;;96.72;39.45;;;;;;;3.38;64.66;101101.34;4443527;32;20168;-79
2023/12/19 09:01:40;;;;;;;;;;;;;;;3.33;65.24;101092.72;4437390;32;20436;-79
2023/12/19 09:04:10;;;;;;;130.10;42.85;;;;;;;2.83;66.94;101081.47;4437129;32;20036;-79
2023/12/19 09:06:40;;;;;;;82.45;37.70;;;;;;;2.50;68.21;101075.94;4436576;32;20187;-79
2023/12/19 09:09:11;;;;;;;231.93;58.17;;;;;;;3.08;66.63;101072.22;4422924;32;20645;-79
2023/12/19 09:11:41;;;;;;;188.02;50.65;;;;;;;2.18;68.53;101072.13;4437360;32;20136;-79
2023/12/19 09:14:12;;;;;;;176.48;54.70;;;;;;;2.01;70.02;101068.88;4437114;32;20171;-79
2023/12/19 09:16:42;;;;;;;204.68;56.10;;;;;;;2.13;70.01;101068.69;4437058;32;20187;-79
2023/12/19 09:19:17;;;;;;;187.85;59.20;;;;;;;1.97;70.63;101065.44;4436371;32;20159;-79
2023/12/19 09:21:47;;;;;;;313.77;156.65;;;;;;;2.09;70.21;101063.53;4437010;32;20172;-79
2023/12/19 09:24:17;;;;;;;214.30;78.97;;;;;;;2.26;69.90;101048.47;4436903;32;20176;-79
2023/12/19 09:26:48;;;;;;;105.45;51.83;;;;;;;1.58;72.22;101051.22;4436899;32;20533;-79
2023/12/19 09:29:22;;;;;;;106.60;44.75;;;;;;;2.06;70.71;101034.81;4437435;32;20196;-79
2023/12/19 09:31:52;;;;;;;194.27;50.25;;;;;;;2.10;71.29;101042.62;4430905;32;20179;-79
2023/12/19 09:34:21;;;;;;;117.93;42.42;;;;;;;1.60;72.97;101039.00;4437747;32;20148;-79
2023/12/19 09:36:51;;;;;;;161.62;53.45;;;;;;;2.26;71.04;101032.75;4437783;32;20164;-80
2023/12/19 09:39:26;;;;;;;92.70;43.15;;;;;;;1.76;72.62;101029.19;4437090;32;20151;-80
2023/12/19 09:41:56;;;;;;;97.95;45.60;;;;;;;2.01;71.94;101013.13;4431253;32;20149;-79
2023/12/19 09:44:33;;;;;;;178.75;55.90;;;;;;;2.35;70.88;101010.81;4423134;32;20151;-79
2023/12/19 09:47:07;;;;;;;253.60;74.87;;;;;;;2.14;71.27;101002.47;4437018;32;20149;-79
2023/12/19 09:49:42;;;;;;;99.15;50.95;;;;;;;1.54;73.39;100991.22;4437289;32;20481;-79
2023/12/19 09:52:14;;;;;;;83.05;45.85;;;;;;;2.22;71.24;100989.25;4437438;32;20476;-79
2023/12/19 09:54:44;;;;;;;86.22;46.92;;;;;;;2.29;71.12;100980.38;4437023;32;20161;-79
2023/12/19 09:57:14;;;;;;;97.18;44.15;;;;;;;2.50;70.81;100973.91;4437064;32;20156;-79
2023/12/19 09:59:49;;;;;;;99.43;45.00;;;;;;;2.43;70.90;100969.69;4449237;32;20511;-79
2023/12/19 10:02:25;;;;;;;132.20;47.13;;;;;;;2.37;71.09;100965.41;4451749;32;20527;-79
2023/12/19 10:04:55;;;;;;;67.55;40.75;;;;;;;2.36;71.19;100965.44;4438050;32;20175;-79
2023/12/19 10:07:27;;;;;;;66.10;41.20;;;;;;;2.46;71.15;100953.94;4451740;32;20443;-79
2023/12/19 10:09:57;;;;;;;129.45;56.37;;;;;;;2.80;70.08;100955.87;4451922;32;20172;-79
2023/12/19 10:12:27;;;;;;;92.72;46.60;;;;;;;2.82;69.57;100943.62;4437661;32;20160;-79
2023/12/19 10:15:15;;;;;;;104.68;42.83;;;;;;;2.70;70.05;100937.75;4437574;32;20172;-79
2023/12/19 10:18:05;;;;;;;86.53;43.78;;;;;;;2.89;69.39;100926.88;4437922;32;20172;-79
2023/12/19 10:20:37;;;;;;;203.45;55.55;;;;;;;2.55;70.58;100918.87;4451152;32;20528;-79
2023/12/19 10:23:07;;;;;;;121.53;45.33;;;;;;;2.66;70.17;100915.16;4451488;32;20175;-79
2023/12/19 10:25:40;;;;;;;156.73;50.10;;;;;;;2.78;69.41;100915.81;4451307;32;20160;-79
2023/12/19 10:28:14;;;;;;;143.15;48.78;;;;;;;2.15;70.79;100910.06;4436976;32;20160;-79
2023/12/19 10:30:46;;;;;;;125.82;46.78;;;;;;;2.17;71.27;100913.47;4437155;32;20183;-79
2023/12/19 10:33:15;;;;;;;111.68;46.58;;;;;;;1.96;72.28;100912.13;4451956;32;20137;-79
2023/12/19 10:35:46;;;;;;;86.87;43.80;;;;;;;2.74;70.11;100899.31;4453011;32;20171;-79
2023/12/19 10:38:15;;;;;;;97.82;42.55;;;;;;;2.84;69.69;100906.03;4451384;32;20160;-79
2023/12/19 10:40:45;;;;;;;79.70;42.72;;;;;;;2.53;70.42;100907.56;4451250;32;20152;-78
2023/12/19 10:43:18;;;;;;;81.15;43.38;;;;;;;3.14;69.21;100901.03;4451532;32;20164;-78
2023/12/19 10:45:49;;;;;;;109.93;45.70;;;;;;;3.12;69.18;100908.06;4451483;32;20168;-79
2023/12/19 10:48:20;;;;;;;119.20;46.13;;;;;;;3.33;68.63;100901.50;4451700;32;20183;-79
2023/12/19 10:50:53;;;;;;;79.43;43.97;;;;;;;3.20;68.77;100895.66;4451700;32;20171;-79
2023/12/19 10:53:23;;;;;;;80.78;40.95;;;;;;;3.30;68.58;100889.31;4451447;32;20164;-79
2023/12/19 10:56:00;;;;;;;142.80;47.30;;;;;;;3.03;69.48;100884.72;4439789;32;373509;-79
2023/12/19 10:58:29;;;;;;;77.80;43.28;;;;;;;3.11;69.29;100873.16;4451147;32;20221;-79
2023/12/19 11:01:00;;;;;;;90.40;44.38;;;;;;;3.14;68.99;100880.09;4451504;32;20147;-79
2023/12/19 11:03:35;;;;;;;81.80;43.35;;;;;;;3.16;68.89;100870.44;4451686;32;20452;-79
2023/12/19 11:06:10;;;;;;;87.28;42.65;;;;;;;3.33;68.30;100868.28;4451427;32;20160;-78
2023/12/19 11:08:43;;;;;;;87.30;45.12;;;;;;;3.37;67.97;100869.09;4451706;32;20528;-78
2023/12/19 11:11:21;;;;;;;130.10;48.03;;;;;;;3.36;67.67;100865.56;4451107;32;20167;-78
2023/12/19 11:13:50;;;;;;;76.82;42.70;;;;;;;3.16;68.03;100857.34;4451422;32;20168;-79
2023/12/19 11:16:27;;;;;;;89.97;43.90;;;;;;;3.11;68.44;100859.22;4451137;32;20168;-79
2023/12/19 11:19:03;;;;;;;84.35;43.03;;;;;;;3.17;68.38;100851.22;4451134;32;20175;-78
2023/12/19 11:21:55;;;;;;;98.47;44.42;;;;;;;3.28;67.77;100845.72;4451333;32;20135;-78
2023/12/19 11:24:33;;;;;;;85.10;43.90;;;;;;;3.06;68.13;100833.13;4451381;32;20163;-78
2023/12/19 11:27:11;;;;;;;106.90;48.42;;;;;;;3.08;68.23;100830.47;4451530;32;20587;-79
2023/12/19 11:29:50;;;;;;;89.40;48.42;;;;;;;2.91;69.29;100820.41;4451876;32;20139;-78
2023/12/19 11:32:40;;;;;;;82.20;41.40;;;;;;;2.99;69.41;100818.47;4451414;32;20183;-78